sensor_id;sensor_type;location;lat;lon;timestamp;P1;durP1;ratioP1;P2;durP2;ratioP2
9795;SDS011;4937;42.680;27.704;2024-01-07T00:00:42;10.32;;;5.18;;
9795;SDS011;4937;42.680;27.704;2024-01-07T00:03:07;8.70;;;4.88;;
9795;SDS011;4937;42.680;27.704;2024-01-07T00:05:33;7.85;;;4.70;;
9795;SDS011;4937;42.680;27.704;2024-01-07T00:08:01;8.48;;;4.60;;
9795;SDS011;4937;42.680;27.704;2024-01-07T00:10:26;14.02;;;4.85;;
9795;SDS011;4937;42.680;27.704;2024-01-07T00:12:52;12.70;;;4.72;;
9795;SDS011;4937;42.680;27.704;2024-01-07T00:15:17;12.38;;;6.00;;
9795;SDS011;4937;42.680;27.704;2024-01-07T00:17:43;8.32;;;5.22;;
9795;SDS011;4937;42.680;27.704;2024-01-07T00:20:08;12.10;;;5.82;;
9795;SDS011;4937;42.680;27.704;2024-01-07T00:22:35;11.48;;;5.38;;
9795;SDS011;4937;42.680;27.704;2024-01-07T00:25:01;10.07;;;5.97;;
9795;SDS011;4937;42.680;27.704;2024-01-07T00:27:26;13.07;;;5.57;;
9795;SDS011;4937;42.680;27.704;2024-01-07T00:29:52;10.90;;;5.47;;
9795;SDS011;4937;42.680;27.704;2024-01-07T00:32:17;10.52;;;6.50;;
9795;SDS011;4937;42.680;27.704;2024-01-07T00:34:43;11.48;;;5.40;;
9795;SDS011;4937;42.680;27.704;2024-01-07T00:37:09;12.85;;;6.35;;
9795;SDS011;4937;42.680;27.704;2024-01-07T00:39:34;13.10;;;6.40;;
9795;SDS011;4937;42.680;27.704;2024-01-07T00:42:00;14.45;;;5.97;;
9795;SDS011;4937;42.680;27.704;2024-01-07T00:44:25;17.30;;;7.60;;
9795;SDS011;4937;42.680;27.704;2024-01-07T00:46:51;15.70;;;6.38;;
9795;SDS011;4937;42.680;27.704;2024-01-07T00:49:16;13.30;;;6.40;;
9795;SDS011;4937;42.680;27.704;2024-01-07T00:51:42;14.80;;;7.45;;
9795;SDS011;4937;42.680;27.704;2024-01-07T00:54:08;17.02;;;7.40;;
9795;SDS011;4937;42.680;27.704;2024-01-07T00:56:33;16.17;;;6.38;;
9795;SDS011;4937;42.680;27.704;2024-01-07T00:58:58;14.45;;;5.88;;
9795;SDS011;4937;42.680;27.704;2024-01-07T01:01:24;15.70;;;6.85;;
9795;SDS011;4937;42.680;27.704;2024-01-07T01:03:49;14.30;;;5.60;;
9795;SDS011;4937;42.680;27.704;2024-01-07T01:06:15;11.60;;;6.00;;
9795;SDS011;4937;42.680;27.704;2024-01-07T01:08:40;16.85;;;6.10;;
9795;SDS011;4937;42.680;27.704;2024-01-07T01:11:08;10.30;;;5.45;;
9795;SDS011;4937;42.680;27.704;2024-01-07T01:13:35;13.23;;;5.63;;
9795;SDS011;4937;42.680;27.704;2024-01-07T01:16:00;10.82;;;5.25;;
9795;SDS011;4937;42.680;27.704;2024-01-07T01:18:26;9.05;;;4.97;;
9795;SDS011;4937;42.680;27.704;2024-01-07T01:20:51;10.70;;;4.68;;
9795;SDS011;4937;42.680;27.704;2024-01-07T01:23:17;7.13;;;4.47;;
9795;SDS011;4937;42.680;27.704;2024-01-07T01:25:42;10.75;;;4.90;;
9795;SDS011;4937;42.680;27.704;2024-01-07T01:28:08;11.80;;;6.00;;
9795;SDS011;4937;42.680;27.704;2024-01-07T01:30:34;11.40;;;5.90;;
9795;SDS011;4937;42.680;27.704;2024-01-07T01:33:00;9.32;;;4.97;;
9795;SDS011;4937;42.680;27.704;2024-01-07T01:35:26;13.90;;;6.25;;
9795;SDS011;4937;42.680;27.704;2024-01-07T01:37:52;12.30;;;5.78;;
9795;SDS011;4937;42.680;27.704;2024-01-07T01:40:36;9.98;;;5.80;;
9795;SDS011;4937;42.680;27.704;2024-01-07T01:43:02;13.52;;;5.57;;
9795;SDS011;4937;42.680;27.704;2024-01-07T01:45:27;9.02;;;5.70;;
9795;SDS011;4937;42.680;27.704;2024-01-07T01:47:53;14.40;;;6.00;;
9795;SDS011;4937;42.680;27.704;2024-01-07T01:50:18;12.07;;;5.15;;
9795;SDS011;4937;42.680;27.704;2024-01-07T01:52:45;10.57;;;5.28;;
9795;SDS011;4937;42.680;27.704;2024-01-07T01:55:11;8.80;;;5.57;;
9795;SDS011;4937;42.680;27.704;2024-01-07T01:57:37;11.02;;;5.35;;
9795;SDS011;4937;42.680;27.704;2024-01-07T02:00:05;14.32;;;6.20;;
9795;SDS011;4937;42.680;27.704;2024-01-07T02:02:32;11.98;;;5.88;;
9795;SDS011;4937;42.680;27.704;2024-01-07T02:05:02;9.95;;;5.40;;
9795;SDS011;4937;42.680;27.704;2024-01-07T02:07:28;8.75;;;5.00;;
9795;SDS011;4937;42.680;27.704;2024-01-07T02:09:55;9.88;;;5.10;;
9795;SDS011;4937;42.680;27.704;2024-01-07T02:12:20;8.68;;;4.50;;
9795;SDS011;4937;42.680;27.704;2024-01-07T02:14:46;11.50;;;4.55;;
9795;SDS011;4937;42.680;27.704;2024-01-07T02:17:11;9.63;;;4.65;;
9795;SDS011;4937;42.680;27.704;2024-01-07T02:19:37;9.45;;;4.68;;
9795;SDS011;4937;42.680;27.704;2024-01-07T02:22:03;12.55;;;5.03;;
9795;SDS011;4937;42.680;27.704;2024-01-07T02:24:29;6.90;;;4.25;;
9795;SDS011;4937;42.680;27.704;2024-01-07T02:26:55;6.25;;;3.80;;
9795;SDS011;4937;42.680;27.704;2024-01-07T02:29:21;6.68;;;3.85;;
9795;SDS011;4937;42.680;27.704;2024-01-07T02:31:47;9.65;;;4.00;;
9795;SDS011;4937;42.680;27.704;2024-01-07T02:34:12;6.90;;;3.72;;
9795;SDS011;4937;42.680;27.704;2024-01-07T02:36:38;7.47;;;3.80;;
9795;SDS011;4937;42.680;27.704;2024-01-07T02:39:03;9.48;;;3.92;;
9795;SDS011;4937;42.680;27.704;2024-01-07T02:41:29;6.47;;;3.80;;
9795;SDS011;4937;42.680;27.704;2024-01-07T02:43:54;6.72;;;3.08;;
9795;SDS011;4937;42.680;27.704;2024-01-07T02:46:20;7.47;;;3.20;;
9795;SDS011;4937;42.680;27.704;2024-01-07T02:48:46;10.27;;;3.45;;
9795;SDS011;4937;42.680;27.704;2024-01-07T02:51:11;10.63;;;3.30;;
9795;SDS011;4937;42.680;27.704;2024-01-07T02:53:37;5.03;;;3.42;;
9795;SDS011;4937;42.680;27.704;2024-01-07T02:56:02;8.57;;;3.83;;
9795;SDS011;4937;42.680;27.704;2024-01-07T02:58:28;7.25;;;3.15;;
9795;SDS011;4937;42.680;27.704;2024-01-07T03:00:54;10.93;;;3.92;;
9795;SDS011;4937;42.680;27.704;2024-01-07T03:03:19;7.13;;;3.33;;
9795;SDS011;4937;42.680;27.704;2024-01-07T03:05:44;10.10;;;3.13;;
9795;SDS011;4937;42.680;27.704;2024-01-07T03:08:10;9.77;;;3.90;;
9795;SDS011;4937;42.680;27.704;2024-01-07T03:10:38;11.82;;;3.30;;
9795;SDS011;4937;42.680;27.704;2024-01-07T03:13:04;9.00;;;3.58;;
9795;SDS011;4937;42.680;27.704;2024-01-07T03:15:29;6.28;;;3.38;;
9795;SDS011;4937;42.680;27.704;2024-01-07T03:17:56;7.30;;;2.97;;
9795;SDS011;4937;42.680;27.704;2024-01-07T03:20:22;13.43;;;4.03;;
9795;SDS011;4937;42.680;27.704;2024-01-07T03:22:47;8.02;;;3.67;;
9795;SDS011;4937;42.680;27.704;2024-01-07T03:25:13;9.93;;;3.55;;
9795;SDS011;4937;42.680;27.704;2024-01-07T03:27:39;8.48;;;3.35;;
9795;SDS011;4937;42.680;27.704;2024-01-07T03:30:04;9.70;;;3.80;;
9795;SDS011;4937;42.680;27.704;2024-01-07T03:32:30;6.97;;;3.33;;
9795;SDS011;4937;42.680;27.704;2024-01-07T03:34:56;5.90;;;3.25;;
9795;SDS011;4937;42.680;27.704;2024-01-07T03:37:21;9.35;;;3.22;;
9795;SDS011;4937;42.680;27.704;2024-01-07T03:39:47;14.57;;;4.07;;
9795;SDS011;4937;42.680;27.704;2024-01-07T03:42:12;6.97;;;3.47;;
9795;SDS011;4937;42.680;27.704;2024-01-07T03:44:38;8.98;;;4.05;;
9795;SDS011;4937;42.680;27.704;2024-01-07T03:47:04;7.88;;;3.90;;
9795;SDS011;4937;42.680;27.704;2024-01-07T03:49:31;7.50;;;4.45;;
9795;SDS011;4937;42.680;27.704;2024-01-07T03:51:56;10.02;;;3.53;;
9795;SDS011;4937;42.680;27.704;2024-01-07T03:54:22;8.98;;;4.00;;
9795;SDS011;4937;42.680;27.704;2024-01-07T03:56:47;20.27;;;4.68;;
9795;SDS011;4937;42.680;27.704;2024-01-07T03:59:13;9.98;;;4.13;;
9795;SDS011;4937;42.680;27.704;2024-01-07T04:01:38;12.30;;;4.00;;
9795;SDS011;4937;42.680;27.704;2024-01-07T04:04:04;12.38;;;3.28;;
9795;SDS011;4937;42.680;27.704;2024-01-07T04:06:29;19.45;;;4.05;;
9795;SDS011;4937;42.680;27.704;2024-01-07T04:08:55;12.73;;;3.78;;
9795;SDS011;4937;42.680;27.704;2024-01-07T04:11:20;14.63;;;4.35;;
9795;SDS011;4937;42.680;27.704;2024-01-07T04:13:46;10.02;;;4.07;;
9795;SDS011;4937;42.680;27.704;2024-01-07T04:16:18;8.60;;;3.80;;
9795;SDS011;4937;42.680;27.704;2024-01-07T04:18:44;6.47;;;3.50;;
9795;SDS011;4937;42.680;27.704;2024-01-07T04:21:10;10.32;;;4.32;;
9795;SDS011;4937;42.680;27.704;2024-01-07T04:23:36;10.35;;;3.70;;
9795;SDS011;4937;42.680;27.704;2024-01-07T04:26:01;7.65;;;3.90;;
9795;SDS011;4937;42.680;27.704;2024-01-07T04:28:27;9.77;;;4.15;;
9795;SDS011;4937;42.680;27.704;2024-01-07T04:30:52;9.68;;;4.60;;
9795;SDS011;4937;42.680;27.704;2024-01-07T04:33:18;12.10;;;4.30;;
9795;SDS011;4937;42.680;27.704;2024-01-07T04:35:43;11.95;;;4.38;;
9795;SDS011;4937;42.680;27.704;2024-01-07T04:38:09;11.48;;;4.05;;
9795;SDS011;4937;42.680;27.704;2024-01-07T04:40:34;10.23;;;4.55;;
9795;SDS011;4937;42.680;27.704;2024-01-07T04:43:00;7.95;;;3.75;;
9795;SDS011;4937;42.680;27.704;2024-01-07T04:45:25;7.78;;;3.95;;
9795;SDS011;4937;42.680;27.704;2024-01-07T04:47:51;10.35;;;4.50;;
9795;SDS011;4937;42.680;27.704;2024-01-07T04:50:16;11.00;;;4.10;;
9795;SDS011;4937;42.680;27.704;2024-01-07T04:52:45;11.98;;;4.10;;
9795;SDS011;4937;42.680;27.704;2024-01-07T04:55:11;8.00;;;3.80;;
9795;SDS011;4937;42.680;27.704;2024-01-07T04:57:37;10.23;;;4.43;;
9795;SDS011;4937;42.680;27.704;2024-01-07T05:00:02;8.77;;;5.22;;
9795;SDS011;4937;42.680;27.704;2024-01-07T05:02:29;14.27;;;4.13;;
9795;SDS011;4937;42.680;27.704;2024-01-07T05:04:54;11.15;;;4.38;;
9795;SDS011;4937;42.680;27.704;2024-01-07T05:07:20;10.18;;;3.90;;
9795;SDS011;4937;42.680;27.704;2024-01-07T05:09:45;12.43;;;4.35;;
9795;SDS011;4937;42.680;27.704;2024-01-07T05:12:11;8.50;;;3.97;;
9795;SDS011;4937;42.680;27.704;2024-01-07T05:14:36;11.13;;;4.43;;
9795;SDS011;4937;42.680;27.704;2024-01-07T05:17:02;10.77;;;4.85;;
9795;SDS011;4937;42.680;27.704;2024-01-07T05:19:29;14.48;;;3.83;;
9795;SDS011;4937;42.680;27.704;2024-01-07T05:21:54;11.98;;;3.90;;
9795;SDS011;4937;42.680;27.704;2024-01-07T05:24:20;11.73;;;4.53;;
9795;SDS011;4937;42.680;27.704;2024-01-07T05:26:46;12.68;;;4.15;;
9795;SDS011;4937;42.680;27.704;2024-01-07T05:29:11;14.27;;;4.40;;
9795;SDS011;4937;42.680;27.704;2024-01-07T05:31:37;17.90;;;5.25;;
9795;SDS011;4937;42.680;27.704;2024-01-07T05:34:03;10.27;;;4.70;;
9795;SDS011;4937;42.680;27.704;2024-01-07T05:36:29;6.93;;;4.07;;
9795;SDS011;4937;42.680;27.704;2024-01-07T05:38:54;13.93;;;4.78;;
9795;SDS011;4937;42.680;27.704;2024-01-07T05:41:20;16.30;;;4.85;;
9795;SDS011;4937;42.680;27.704;2024-01-07T05:43:45;11.25;;;4.95;;
9795;SDS011;4937;42.680;27.704;2024-01-07T05:46:11;14.98;;;4.95;;
9795;SDS011;4937;42.680;27.704;2024-01-07T05:48:40;8.02;;;3.72;;
9795;SDS011;4937;42.680;27.704;2024-01-07T05:51:07;8.38;;;3.15;;
9795;SDS011;4937;42.680;27.704;2024-01-07T05:53:34;7.95;;;3.53;;
9795;SDS011;4937;42.680;27.704;2024-01-07T05:55:59;6.03;;;2.42;;
9795;SDS011;4937;42.680;27.704;2024-01-07T05:58:25;8.50;;;2.20;;
9795;SDS011;4937;42.680;27.704;2024-01-07T06:00:51;3.85;;;1.73;;
9795;SDS011;4937;42.680;27.704;2024-01-07T06:03:16;7.55;;;1.92;;
9795;SDS011;4937;42.680;27.704;2024-01-07T06:05:41;4.20;;;1.70;;
9795;SDS011;4937;42.680;27.704;2024-01-07T06:08:07;4.15;;;1.73;;
9795;SDS011;4937;42.680;27.704;2024-01-07T06:10:33;3.30;;;1.63;;
9795;SDS011;4937;42.680;27.704;2024-01-07T06:12:59;2.60;;;1.25;;
9795;SDS011;4937;42.680;27.704;2024-01-07T06:15:24;3.58;;;1.25;;
9795;SDS011;4937;42.680;27.704;2024-01-07T06:17:50;4.93;;;1.67;;
9795;SDS011;4937;42.680;27.704;2024-01-07T06:20:15;1.98;;;0.90;;
9795;SDS011;4937;42.680;27.704;2024-01-07T06:22:41;1.23;;;0.73;;
9795;SDS011;4937;42.680;27.704;2024-01-07T06:25:07;3.35;;;0.90;;
9795;SDS011;4937;42.680;27.704;2024-01-07T06:27:32;2.40;;;0.63;;
9795;SDS011;4937;42.680;27.704;2024-01-07T06:29:58;3.05;;;1.38;;
9795;SDS011;4937;42.680;27.704;2024-01-07T06:32:23;1.58;;;0.90;;
9795;SDS011;4937;42.680;27.704;2024-01-07T06:34:50;1.33;;;0.43;;
9795;SDS011;4937;42.680;27.704;2024-01-07T06:37:15;2.80;;;0.73;;
9795;SDS011;4937;42.680;27.704;2024-01-07T06:39:41;0.98;;;0.50;;
9795;SDS011;4937;42.680;27.704;2024-01-07T06:42:06;1.65;;;0.30;;
9795;SDS011;4937;42.680;27.704;2024-01-07T06:44:32;0.70;;;0.40;;
9795;SDS011;4937;42.680;27.704;2024-01-07T06:46:57;4.60;;;0.60;;
9795;SDS011;4937;42.680;27.704;2024-01-07T06:49:23;3.65;;;0.68;;
9795;SDS011;4937;42.680;27.704;2024-01-07T06:51:48;1.42;;;0.75;;
9795;SDS011;4937;42.680;27.704;2024-01-07T06:54:14;3.60;;;0.57;;
9795;SDS011;4937;42.680;27.704;2024-01-07T06:56:39;3.30;;;1.20;;
9795;SDS011;4937;42.680;27.704;2024-01-07T06:59:05;2.67;;;0.70;;
9795;SDS011;4937;42.680;27.704;2024-01-07T07:01:32;1.80;;;0.80;;
9795;SDS011;4937;42.680;27.704;2024-01-07T07:03:57;3.95;;;0.73;;
9795;SDS011;4937;42.680;27.704;2024-01-07T07:06:23;3.15;;;0.93;;
9795;SDS011;4937;42.680;27.704;2024-01-07T07:08:49;3.50;;;0.60;;
9795;SDS011;4937;42.680;27.704;2024-01-07T07:11:15;3.22;;;0.60;;
9795;SDS011;4937;42.680;27.704;2024-01-07T07:13:41;4.70;;;0.50;;
9795;SDS011;4937;42.680;27.704;2024-01-07T07:16:07;3.33;;;0.70;;
9795;SDS011;4937;42.680;27.704;2024-01-07T07:18:32;1.63;;;0.60;;
9795;SDS011;4937;42.680;27.704;2024-01-07T07:20:58;0.40;;;0.20;;
9795;SDS011;4937;42.680;27.704;2024-01-07T07:23:24;4.97;;;0.90;;
9795;SDS011;4937;42.680;27.704;2024-01-07T07:25:50;2.83;;;0.60;;
9795;SDS011;4937;42.680;27.704;2024-01-07T07:28:16;6.45;;;1.23;;
9795;SDS011;4937;42.680;27.704;2024-01-07T07:30:42;2.35;;;0.88;;
9795;SDS011;4937;42.680;27.704;2024-01-07T07:33:08;2.90;;;0.98;;
9795;SDS011;4937;42.680;27.704;2024-01-07T07:35:33;3.40;;;1.13;;
9795;SDS011;4937;42.680;27.704;2024-01-07T07:37:59;4.75;;;0.88;;
9795;SDS011;4937;42.680;27.704;2024-01-07T07:40:24;3.42;;;0.70;;
9795;SDS011;4937;42.680;27.704;2024-01-07T07:42:50;6.70;;;1.10;;
9795;SDS011;4937;42.680;27.704;2024-01-07T07:45:16;4.90;;;1.15;;
9795;SDS011;4937;42.680;27.704;2024-01-07T07:47:41;4.30;;;1.23;;
9795;SDS011;4937;42.680;27.704;2024-01-07T07:50:10;6.25;;;0.73;;
9795;SDS011;4937;42.680;27.704;2024-01-07T07:52:38;4.00;;;0.50;;
9795;SDS011;4937;42.680;27.704;2024-01-07T07:55:03;6.20;;;1.23;;
9795;SDS011;4937;42.680;27.704;2024-01-07T07:57:29;3.55;;;0.90;;
9795;SDS011;4937;42.680;27.704;2024-01-07T07:59:54;4.18;;;0.52;;
9795;SDS011;4937;42.680;27.704;2024-01-07T08:02:20;4.28;;;0.60;;
9795;SDS011;4937;42.680;27.704;2024-01-07T08:04:46;6.25;;;0.80;;
9795;SDS011;4937;42.680;27.704;2024-01-07T08:07:12;4.00;;;0.50;;
9795;SDS011;4937;42.680;27.704;2024-01-07T08:09:38;3.92;;;0.40;;
9795;SDS011;4937;42.680;27.704;2024-01-07T08:12:04;4.18;;;0.38;;
9795;SDS011;4937;42.680;27.704;2024-01-07T08:14:31;3.80;;;0.75;;
9795;SDS011;4937;42.680;27.704;2024-01-07T08:16:57;2.20;;;0.60;;
9795;SDS011;4937;42.680;27.704;2024-01-07T08:19:23;5.43;;;0.70;;
9795;SDS011;4937;42.680;27.704;2024-01-07T08:21:48;3.95;;;1.00;;
9795;SDS011;4937;42.680;27.704;2024-01-07T08:24:14;3.78;;;0.55;;
9795;SDS011;4937;42.680;27.704;2024-01-07T08:26:39;2.60;;;0.95;;
9795;SDS011;4937;42.680;27.704;2024-01-07T08:29:05;1.95;;;0.57;;
9795;SDS011;4937;42.680;27.704;2024-01-07T08:31:31;5.28;;;0.63;;
9795;SDS011;4937;42.680;27.704;2024-01-07T08:33:57;5.47;;;0.80;;
9795;SDS011;4937;42.680;27.704;2024-01-07T08:36:22;8.52;;;0.93;;
9795;SDS011;4937;42.680;27.704;2024-01-07T08:38:48;9.65;;;1.83;;
9795;SDS011;4937;42.680;27.704;2024-01-07T08:41:17;6.20;;;1.23;;
9795;SDS011;4937;42.680;27.704;2024-01-07T08:43:43;10.30;;;1.00;;
9795;SDS011;4937;42.680;27.704;2024-01-07T08:46:10;7.28;;;1.00;;
9795;SDS011;4937;42.680;27.704;2024-01-07T08:48:36;8.23;;;1.45;;
9795;SDS011;4937;42.680;27.704;2024-01-07T08:51:01;5.30;;;0.85;;
9795;SDS011;4937;42.680;27.704;2024-01-07T08:53:28;15.15;;;2.40;;
9795;SDS011;4937;42.680;27.704;2024-01-07T08:55:53;13.63;;;1.90;;
9795;SDS011;4937;42.680;27.704;2024-01-07T08:58:19;9.18;;;1.80;;
9795;SDS011;4937;42.680;27.704;2024-01-07T09:00:45;9.02;;;1.52;;
9795;SDS011;4937;42.680;27.704;2024-01-07T09:03:10;7.35;;;1.27;;
9795;SDS011;4937;42.680;27.704;2024-01-07T09:05:36;12.15;;;1.98;;
9795;SDS011;4937;42.680;27.704;2024-01-07T09:08:02;6.53;;;1.35;;
9795;SDS011;4937;42.680;27.704;2024-01-07T09:10:27;9.85;;;1.25;;
9795;SDS011;4937;42.680;27.704;2024-01-07T09:12:53;11.98;;;1.90;;
9795;SDS011;4937;42.680;27.704;2024-01-07T09:15:19;10.77;;;1.60;;
9795;SDS011;4937;42.680;27.704;2024-01-07T09:17:45;13.10;;;1.48;;
9795;SDS011;4937;42.680;27.704;2024-01-07T09:20:11;14.10;;;1.90;;
9795;SDS011;4937;42.680;27.704;2024-01-07T09:22:37;13.57;;;2.13;;
9795;SDS011;4937;42.680;27.704;2024-01-07T09:25:03;17.17;;;2.38;;
9795;SDS011;4937;42.680;27.704;2024-01-07T09:27:30;8.68;;;1.75;;
9795;SDS011;4937;42.680;27.704;2024-01-07T09:29:56;14.52;;;2.00;;
9795;SDS011;4937;42.680;27.704;2024-01-07T09:32:21;13.20;;;2.22;;
9795;SDS011;4937;42.680;27.704;2024-01-07T09:34:47;13.75;;;2.40;;
9795;SDS011;4937;42.680;27.704;2024-01-07T09:37:13;17.52;;;2.25;;
9795;SDS011;4937;42.680;27.704;2024-01-07T09:39:41;12.07;;;2.08;;
9795;SDS011;4937;42.680;27.704;2024-01-07T09:42:14;6.40;;;1.83;;
9795;SDS011;4937;42.680;27.704;2024-01-07T09:44:42;12.10;;;2.55;;
9795;SDS011;4937;42.680;27.704;2024-01-07T09:47:14;12.48;;;2.22;;
9795;SDS011;4937;42.680;27.704;2024-01-07T09:49:41;15.48;;;2.95;;
9795;SDS011;4937;42.680;27.704;2024-01-07T09:52:08;19.40;;;1.98;;
9795;SDS011;4937;42.680;27.704;2024-01-07T09:54:36;14.35;;;2.25;;
9795;SDS011;4937;42.680;27.704;2024-01-07T09:57:05;19.35;;;2.55;;
9795;SDS011;4937;42.680;27.704;2024-01-07T09:59:32;19.25;;;2.38;;
9795;SDS011;4937;42.680;27.704;2024-01-07T10:01:59;8.40;;;1.70;;
9795;SDS011;4937;42.680;27.704;2024-01-07T10:04:25;21.10;;;2.22;;
9795;SDS011;4937;42.680;27.704;2024-01-07T10:06:51;15.38;;;2.30;;
9795;SDS011;4937;42.680;27.704;2024-01-07T10:09:19;23.60;;;2.28;;
9795;SDS011;4937;42.680;27.704;2024-01-07T10:11:44;14.40;;;2.83;;
9795;SDS011;4937;42.680;27.704;2024-01-07T10:14:10;23.40;;;2.35;;
9795;SDS011;4937;42.680;27.704;2024-01-07T10:16:36;14.25;;;2.25;;
9795;SDS011;4937;42.680;27.704;2024-01-07T10:19:01;27.55;;;3.42;;
9795;SDS011;4937;42.680;27.704;2024-01-07T10:21:27;14.73;;;2.53;;
9795;SDS011;4937;42.680;27.704;2024-01-07T10:24:13;18.80;;;2.15;;
9795;SDS011;4937;42.680;27.704;2024-01-07T10:26:39;23.42;;;3.03;;
9795;SDS011;4937;42.680;27.704;2024-01-07T10:29:05;15.25;;;2.75;;
9795;SDS011;4937;42.680;27.704;2024-01-07T10:31:31;24.20;;;4.20;;
9795;SDS011;4937;42.680;27.704;2024-01-07T10:33:57;14.13;;;2.47;;
9795;SDS011;4937;42.680;27.704;2024-01-07T10:36:23;18.38;;;2.67;;
9795;SDS011;4937;42.680;27.704;2024-01-07T10:38:49;15.02;;;2.90;;
9795;SDS011;4937;42.680;27.704;2024-01-07T10:41:20;21.55;;;2.83;;
9795;SDS011;4937;42.680;27.704;2024-01-07T10:43:46;21.00;;;2.28;;
9795;SDS011;4937;42.680;27.704;2024-01-07T10:46:13;17.58;;;2.22;;
9795;SDS011;4937;42.680;27.704;2024-01-07T10:48:46;19.13;;;2.83;;
9795;SDS011;4937;42.680;27.704;2024-01-07T10:51:24;19.08;;;2.63;;
9795;SDS011;4937;42.680;27.704;2024-01-07T10:53:53;18.38;;;2.25;;
9795;SDS011;4937;42.680;27.704;2024-01-07T10:56:21;18.80;;;2.28;;
9795;SDS011;4937;42.680;27.704;2024-01-07T10:58:49;12.70;;;2.42;;
9795;SDS011;4937;42.680;27.704;2024-01-07T11:01:19;23.45;;;3.70;;
9795;SDS011;4937;42.680;27.704;2024-01-07T11:12:01;18.63;;;2.60;;
9795;SDS011;4937;42.680;27.704;2024-01-07T11:14:40;9.93;;;1.75;;
9795;SDS011;4937;42.680;27.704;2024-01-07T11:17:10;16.10;;;3.05;;
9795;SDS011;4937;42.680;27.704;2024-01-07T11:19:36;16.58;;;3.45;;
9795;SDS011;4937;42.680;27.704;2024-01-07T11:22:21;15.15;;;3.10;;
9795;SDS011;4937;42.680;27.704;2024-01-07T11:24:52;21.25;;;3.13;;
9795;SDS011;4937;42.680;27.704;2024-01-07T11:27:25;20.13;;;3.53;;
9795;SDS011;4937;42.680;27.704;2024-01-07T11:29:54;15.55;;;2.47;;
9795;SDS011;4937;42.680;27.704;2024-01-07T11:32:28;14.43;;;2.08;;
9795;SDS011;4937;42.680;27.704;2024-01-07T11:34:54;12.98;;;2.67;;
9795;SDS011;4937;42.680;27.704;2024-01-07T11:37:21;15.57;;;2.40;;
9795;SDS011;4937;42.680;27.704;2024-01-07T11:39:48;21.42;;;2.47;;
9795;SDS011;4937;42.680;27.704;2024-01-07T11:42:16;10.38;;;2.25;;
9795;SDS011;4937;42.680;27.704;2024-01-07T11:44:48;19.92;;;3.20;;
9795;SDS011;4937;42.680;27.704;2024-01-07T11:47:17;11.98;;;2.33;;
9795;SDS011;4937;42.680;27.704;2024-01-07T11:49:46;11.38;;;2.30;;
9795;SDS011;4937;42.680;27.704;2024-01-07T11:52:12;15.88;;;1.98;;
9795;SDS011;4937;42.680;27.704;2024-01-07T11:54:39;14.85;;;3.65;;
9795;SDS011;4937;42.680;27.704;2024-01-07T11:57:06;14.82;;;2.78;;
9795;SDS011;4937;42.680;27.704;2024-01-07T11:59:35;16.55;;;2.13;;
9795;SDS011;4937;42.680;27.704;2024-01-07T12:02:01;15.02;;;2.53;;
9795;SDS011;4937;42.680;27.704;2024-01-07T12:04:30;13.68;;;2.15;;
9795;SDS011;4937;42.680;27.704;2024-01-07T12:06:56;19.92;;;2.60;;
9795;SDS011;4937;42.680;27.704;2024-01-07T12:09:21;18.60;;;2.30;;
9795;SDS011;4937;42.680;27.704;2024-01-07T12:11:47;25.23;;;3.00;;
9795;SDS011;4937;42.680;27.704;2024-01-07T12:14:13;20.67;;;2.85;;
9795;SDS011;4937;42.680;27.704;2024-01-07T12:16:39;22.92;;;2.70;;
9795;SDS011;4937;42.680;27.704;2024-01-07T12:19:04;16.40;;;1.83;;
9795;SDS011;4937;42.680;27.704;2024-01-07T12:21:30;14.35;;;3.05;;
9795;SDS011;4937;42.680;27.704;2024-01-07T12:23:56;20.65;;;2.97;;
9795;SDS011;4937;42.680;27.704;2024-01-07T12:26:29;22.83;;;3.38;;
9795;SDS011;4937;42.680;27.704;2024-01-07T12:28:56;15.20;;;3.72;;
9795;SDS011;4937;42.680;27.704;2024-01-07T12:33:53;18.40;;;2.90;;
9795;SDS011;4937;42.680;27.704;2024-01-07T12:36:22;15.52;;;2.40;;
9795;SDS011;4937;42.680;27.704;2024-01-07T12:38:48;10.80;;;2.00;;
9795;SDS011;4937;42.680;27.704;2024-01-07T12:41:14;16.45;;;2.85;;
9795;SDS011;4937;42.680;27.704;2024-01-07T12:43:40;13.07;;;2.10;;
9795;SDS011;4937;42.680;27.704;2024-01-07T12:46:06;21.00;;;2.80;;
9795;SDS011;4937;42.680;27.704;2024-01-07T12:48:32;10.90;;;2.60;;
9795;SDS011;4937;42.680;27.704;2024-01-07T12:50:57;21.92;;;3.13;;
9795;SDS011;4937;42.680;27.704;2024-01-07T12:53:23;16.23;;;2.65;;
9795;SDS011;4937;42.680;27.704;2024-01-07T12:55:49;23.15;;;2.97;;
9795;SDS011;4937;42.680;27.704;2024-01-07T12:58:15;16.80;;;2.85;;
9795;SDS011;4937;42.680;27.704;2024-01-07T13:00:42;23.40;;;3.42;;
9795;SDS011;4937;42.680;27.704;2024-01-07T13:03:08;17.83;;;4.00;;
9795;SDS011;4937;42.680;27.704;2024-01-07T13:05:38;15.82;;;2.55;;
9795;SDS011;4937;42.680;27.704;2024-01-07T13:08:04;22.63;;;2.80;;
9795;SDS011;4937;42.680;27.704;2024-01-07T13:10:30;25.60;;;3.33;;
9795;SDS011;4937;42.680;27.704;2024-01-07T13:12:55;15.55;;;2.58;;
9795;SDS011;4937;42.680;27.704;2024-01-07T13:15:21;20.75;;;3.75;;
9795;SDS011;4937;42.680;27.704;2024-01-07T13:17:47;15.45;;;2.10;;
9795;SDS011;4937;42.680;27.704;2024-01-07T13:20:13;21.92;;;2.72;;
9795;SDS011;4937;42.680;27.704;2024-01-07T13:22:39;18.00;;;2.42;;
9795;SDS011;4937;42.680;27.704;2024-01-07T13:25:06;16.17;;;2.78;;
9795;SDS011;4937;42.680;27.704;2024-01-07T13:27:31;20.05;;;2.50;;
9795;SDS011;4937;42.680;27.704;2024-01-07T13:29:58;17.42;;;2.40;;
9795;SDS011;4937;42.680;27.704;2024-01-07T13:32:24;23.48;;;2.90;;
9795;SDS011;4937;42.680;27.704;2024-01-07T13:34:49;16.17;;;3.30;;
9795;SDS011;4937;42.680;27.704;2024-01-07T13:37:15;19.52;;;3.42;;
9795;SDS011;4937;42.680;27.704;2024-01-07T13:39:40;19.95;;;2.72;;
9795;SDS011;4937;42.680;27.704;2024-01-07T13:42:06;24.35;;;2.50;;
9795;SDS011;4937;42.680;27.704;2024-01-07T13:44:32;25.08;;;2.90;;
9795;SDS011;4937;42.680;27.704;2024-01-07T13:46:59;17.00;;;2.75;;
9795;SDS011;4937;42.680;27.704;2024-01-07T13:49:26;15.07;;;2.28;;
9795;SDS011;4937;42.680;27.704;2024-01-07T13:51:52;20.05;;;2.90;;
9795;SDS011;4937;42.680;27.704;2024-01-07T13:54:18;26.42;;;2.95;;
9795;SDS011;4937;42.680;27.704;2024-01-07T13:56:43;14.98;;;2.45;;
9795;SDS011;4937;42.680;27.704;2024-01-07T13:59:11;19.00;;;3.13;;
9795;SDS011;4937;42.680;27.704;2024-01-07T14:01:37;22.25;;;3.08;;
9795;SDS011;4937;42.680;27.704;2024-01-07T14:04:05;34.25;;;3.53;;
9795;SDS011;4937;42.680;27.704;2024-01-07T14:06:31;15.13;;;2.50;;
9795;SDS011;4937;42.680;27.704;2024-01-07T14:08:56;14.38;;;3.33;;
9795;SDS011;4937;42.680;27.704;2024-01-07T14:11:22;25.52;;;3.45;;
9795;SDS011;4937;42.680;27.704;2024-01-07T14:13:48;24.02;;;3.17;;
9795;SDS011;4937;42.680;27.704;2024-01-07T14:16:14;18.65;;;3.50;;
9795;SDS011;4937;42.680;27.704;2024-01-07T14:18:39;13.00;;;2.50;;
9795;SDS011;4937;42.680;27.704;2024-01-07T14:21:05;14.30;;;1.67;;
9795;SDS011;4937;42.680;27.704;2024-01-07T14:23:31;17.92;;;3.28;;
9795;SDS011;4937;42.680;27.704;2024-01-07T14:25:59;25.13;;;3.03;;
9795;SDS011;4937;42.680;27.704;2024-01-07T14:28:25;7.93;;;2.38;;
9795;SDS011;4937;42.680;27.704;2024-01-07T14:30:51;14.57;;;2.53;;
9795;SDS011;4937;42.680;27.704;2024-01-07T14:33:17;11.80;;;2.40;;
9795;SDS011;4937;42.680;27.704;2024-01-07T14:35:42;15.07;;;3.15;;
9795;SDS011;4937;42.680;27.704;2024-01-07T14:38:08;12.77;;;3.00;;
9795;SDS011;4937;42.680;27.704;2024-01-07T14:40:34;8.55;;;2.72;;
9795;SDS011;4937;42.680;27.704;2024-01-07T14:42:59;16.15;;;3.78;;
9795;SDS011;4937;42.680;27.704;2024-01-07T14:45:26;18.25;;;3.15;;
9795;SDS011;4937;42.680;27.704;2024-01-07T14:47:52;10.27;;;3.75;;
9795;SDS011;4937;42.680;27.704;2024-01-07T14:50:18;19.55;;;3.47;;
9795;SDS011;4937;42.680;27.704;2024-01-07T14:52:44;16.98;;;2.88;;
9795;SDS011;4937;42.680;27.704;2024-01-07T14:55:10;15.80;;;2.33;;
9795;SDS011;4937;42.680;27.704;2024-01-07T14:57:36;23.05;;;3.72;;